createdAt,value
2019-05-19T00:02:01.424Z,15.30
2019-05-19T00:04:29.005Z,15.20
2019-05-19T00:06:56.646Z,15.20
2019-05-19T00:09:24.185Z,15.30
2019-05-19T00:11:51.809Z,15.30
2019-05-19T00:14:19.379Z,15.20
2019-05-19T00:16:46.972Z,15.20
2019-05-19T00:19:25.816Z,15.30
2019-05-19T00:21:43.986Z,15.30
2019-05-19T00:24:11.512Z,15.30
2019-05-19T00:26:39.106Z,15.20
2019-05-19T00:29:06.715Z,15.20
2019-05-19T00:31:34.343Z,15.30
2019-05-19T00:34:02.294Z,15.30
2019-05-19T00:36:29.944Z,15.30
2019-05-19T00:38:57.543Z,15.30
2019-05-19T00:41:25.183Z,15.30
2019-05-19T00:43:52.816Z,15.20
2019-05-19T00:46:20.406Z,15.20
2019-05-19T00:48:48.043Z,15.20
2019-05-19T00:51:15.759Z,15.20
2019-05-19T00:53:43.337Z,15.30
2019-05-19T00:56:11.163Z,15.20
2019-05-19T00:58:39.859Z,15.20
2019-05-19T01:01:07.843Z,15.30
2019-05-19T01:03:35.417Z,15.20
2019-05-19T01:06:03.026Z,15.20
2019-05-19T01:08:30.585Z,15.30
2019-05-19T01:10:58.479Z,15.30
2019-05-19T01:13:26.103Z,15.30
2019-05-19T01:15:53.689Z,15.30
2019-05-19T01:18:21.311Z,15.30
2019-05-19T01:20:49.069Z,15.30
2019-05-19T01:23:16.628Z,15.20
2019-05-19T01:25:44.146Z,15.20
2019-05-19T01:28:11.743Z,15.10
2019-05-19T01:30:39.356Z,15.00
2019-05-19T01:33:06.967Z,15.00
2019-05-19T01:35:34.528Z,15.00
2019-05-19T01:38:02.162Z,15.00
2019-05-19T01:40:29.806Z,15.00
2019-05-19T01:42:57.617Z,14.90
2019-05-19T01:45:25.145Z,14.80
2019-05-19T01:47:52.823Z,14.70
2019-05-19T01:50:20.391Z,14.50
2019-05-19T01:52:48.047Z,14.50
2019-05-19T01:55:15.605Z,14.60
2019-05-19T01:57:43.139Z,14.60
2019-05-19T02:00:11.216Z,14.40
2019-05-19T02:02:38.901Z,14.40
2019-05-19T02:05:06.770Z,14.50
2019-05-19T02:07:34.692Z,14.60
2019-05-19T02:10:02.655Z,14.60
2019-05-19T02:12:30.693Z,14.60
2019-05-19T02:14:58.314Z,14.60
2019-05-19T02:17:25.917Z,14.60
2019-05-19T02:19:53.549Z,14.50
2019-05-19T02:22:21.141Z,14.50
2019-05-19T02:24:48.801Z,14.50
2019-05-19T02:27:16.405Z,14.60
2019-05-19T02:29:43.980Z,14.70
2019-05-19T02:32:11.559Z,14.70
2019-05-19T02:34:39.210Z,14.70
2019-05-19T02:37:06.776Z,14.70
2019-05-19T02:39:34.423Z,14.60
2019-05-19T02:42:03.773Z,14.60
2019-05-19T02:44:32.681Z,14.60
2019-05-19T02:47:00.811Z,14.60
2019-05-19T02:49:30.289Z,14.50
2019-05-19T02:52:00.590Z,14.50
2019-05-19T02:54:29.211Z,14.50
2019-05-19T02:56:56.788Z,14.60
2019-05-19T02:59:24.392Z,14.60
2019-05-19T03:02:07.132Z,14.60
2019-05-19T03:04:34.868Z,14.60
2019-05-19T03:07:02.528Z,14.40
2019-05-19T03:09:30.223Z,14.40
2019-05-19T03:11:57.824Z,14.50
2019-05-19T03:14:25.508Z,14.50
2019-05-19T03:16:53.140Z,14.40
2019-05-19T03:19:21.109Z,14.40
2019-05-19T03:21:48.691Z,14.30
2019-05-19T03:24:16.325Z,14.40
2019-05-19T03:26:43.947Z,14.40
2019-05-19T03:29:13.308Z,14.30
2019-05-19T03:31:56.731Z,14.30
2019-05-19T03:34:24.708Z,14.20
2019-05-19T03:36:52.277Z,14.20
2019-05-19T03:39:19.818Z,14.10
2019-05-19T03:41:47.881Z,14.10
2019-05-19T03:44:15.407Z,14.20
2019-05-19T03:46:43.294Z,14.20
2019-05-19T03:49:10.906Z,14.10
2019-05-19T03:51:38.477Z,14.20
2019-05-19T03:54:06.034Z,14.10
2019-05-19T03:56:33.568Z,14.00
2019-05-19T03:59:01.126Z,14.00
2019-05-19T04:01:28.696Z,14.00
2019-05-19T04:03:56.279Z,14.10
2019-05-19T04:06:23.865Z,14.20
2019-05-19T04:08:51.772Z,14.20
2019-05-19T04:11:19.366Z,14.20
2019-05-19T04:13:46.922Z,14.20
2019-05-19T04:16:14.506Z,14.30
2019-05-19T04:18:42.084Z,14.30
2019-05-19T04:21:09.675Z,14.40
2019-05-19T04:23:37.229Z,14.40
2019-05-19T04:26:04.804Z,14.40
2019-05-19T04:28:32.328Z,14.50
2019-05-19T04:30:59.957Z,14.50
2019-05-19T04:33:27.616Z,14.60
2019-05-19T04:35:57.536Z,14.60
2019-05-19T04:38:24.553Z,14.60
2019-05-19T04:40:52.253Z,14.70
2019-05-19T04:43:19.810Z,14.80
2019-05-19T04:45:47.403Z,14.80
2019-05-19T04:48:15.012Z,14.90
2019-05-19T04:50:42.605Z,15.10
2019-05-19T04:53:10.129Z,15.20
2019-05-19T04:55:38.195Z,15.40
2019-05-19T04:58:05.779Z,15.50
2019-05-19T05:00:33.311Z,15.60
2019-05-19T05:03:00.967Z,15.80
2019-05-19T05:05:28.451Z,15.90
2019-05-19T05:07:56.224Z,16.20
2019-05-19T05:10:23.820Z,16.40
2019-05-19T05:12:51.393Z,16.70
2019-05-19T05:15:18.998Z,16.80
2019-05-19T05:17:46.530Z,17.00
2019-05-19T05:20:14.635Z,17.10
2019-05-19T05:22:42.239Z,17.20
2019-05-19T05:25:09.987Z,17.20
2019-05-19T05:27:37.660Z,17.30
2019-05-19T05:30:05.524Z,17.40
2019-05-19T05:32:33.175Z,17.40
2019-05-19T05:35:00.806Z,17.10
2019-05-19T05:37:28.403Z,16.90
2019-05-19T05:39:56.030Z,16.90
2019-05-19T05:42:23.631Z,16.90
2019-05-19T05:44:51.215Z,16.70
2019-05-19T05:47:19.032Z,16.50
2019-05-19T05:49:50.045Z,16.40
2019-05-19T05:52:15.952Z,16.40
2019-05-19T05:54:43.512Z,16.40
2019-05-19T05:57:11.109Z,16.40
2019-05-19T05:59:38.665Z,16.30
2019-05-19T06:02:06.265Z,16.30
2019-05-19T06:04:35.093Z,16.30
2019-05-19T06:07:03.889Z,16.30
2019-05-19T06:09:31.492Z,16.40
2019-05-19T06:11:59.471Z,16.50
2019-05-19T06:14:28.174Z,16.50
2019-05-19T06:16:55.860Z,16.40
2019-05-19T06:19:23.466Z,16.50
2019-05-19T06:21:51.049Z,16.50
2019-05-19T06:24:18.688Z,16.60
2019-05-19T06:26:46.488Z,16.60
2019-05-19T06:29:14.015Z,16.60
2019-05-19T06:31:41.777Z,16.60
2019-05-19T06:34:09.457Z,16.50
2019-05-19T06:36:36.964Z,16.50
2019-05-19T06:39:06.140Z,16.40
2019-05-19T06:41:33.834Z,16.50
2019-05-19T06:44:03.360Z,16.50
2019-05-19T06:46:31.148Z,16.60
2019-05-19T06:48:58.794Z,16.70
2019-05-19T06:51:26.442Z,16.80
2019-05-19T06:53:54.077Z,16.80
2019-05-19T06:56:21.664Z,16.70
2019-05-19T06:58:49.279Z,16.80
2019-05-19T07:01:16.814Z,16.90
2019-05-19T07:03:44.405Z,17.00
2019-05-19T07:06:12.049Z,17.00
2019-05-19T07:08:46.760Z,17.10
2019-05-19T07:11:14.459Z,17.20
2019-05-19T07:13:42.053Z,17.30
2019-05-19T07:16:12.440Z,17.30
2019-05-19T07:18:40.298Z,17.40
2019-05-19T07:21:34.149Z,17.30
2019-05-19T07:24:02.237Z,17.30
2019-05-19T07:26:29.849Z,17.40
2019-05-19T07:28:59.047Z,17.30
2019-05-19T07:31:26.619Z,17.40
2019-05-19T07:33:54.272Z,17.30
2019-05-19T07:36:21.864Z,17.40
2019-05-19T07:38:49.437Z,17.30
2019-05-19T07:41:17.127Z,17.40
2019-05-19T07:43:44.720Z,17.50
2019-05-19T07:46:12.568Z,17.50
2019-05-19T07:48:41.427Z,17.70
2019-05-19T07:51:10.575Z,17.80
2019-05-19T07:53:43.074Z,18.00
2019-05-19T07:56:07.671Z,18.10
2019-05-19T07:58:35.249Z,18.10
2019-05-19T08:01:02.857Z,18.20
2019-05-19T08:03:30.467Z,18.20
2019-05-19T08:05:58.228Z,18.20
2019-05-19T08:08:25.947Z,18.20
2019-05-19T08:10:53.559Z,18.30
2019-05-19T08:13:21.157Z,18.30
2019-05-19T08:15:48.753Z,18.20
2019-05-19T08:18:16.796Z,18.10
2019-05-19T08:20:44.444Z,18.10
2019-05-19T08:23:12.067Z,18.30
2019-05-19T08:25:39.647Z,18.30
2019-05-19T08:28:09.163Z,18.40
2019-05-19T08:30:36.726Z,18.40
2019-05-19T08:33:04.430Z,18.60
2019-05-19T08:35:32.084Z,18.60
2019-05-19T08:37:59.802Z,18.70
2019-05-19T08:40:27.423Z,18.80
2019-05-19T08:42:55.504Z,18.90
2019-05-19T08:45:23.173Z,19.00
2019-05-19T08:47:50.882Z,18.80
2019-05-19T08:50:18.519Z,18.70
2019-05-19T08:52:46.185Z,18.70
2019-05-19T08:55:13.883Z,18.80
2019-05-19T08:57:41.449Z,19.20
2019-05-19T09:00:09.330Z,19.50
2019-05-19T09:02:36.853Z,19.40
2019-05-19T09:05:04.597Z,19.00
2019-05-19T09:07:34.916Z,19.00
2019-05-19T09:10:02.596Z,19.10
2019-05-19T09:12:30.252Z,19.30
2019-05-19T09:14:57.897Z,19.40
2019-05-19T09:17:25.824Z,19.50
2019-05-19T09:19:53.469Z,19.60
2019-05-19T09:22:21.135Z,19.60
2019-05-19T09:24:48.854Z,19.60
2019-05-19T09:27:16.445Z,19.70
2019-05-19T09:29:44.196Z,19.60
2019-05-19T09:32:12.925Z,19.60
2019-05-19T09:34:40.895Z,19.80
2019-05-19T09:37:08.601Z,19.90
2019-05-19T09:39:36.216Z,20.00
2019-05-19T09:42:03.917Z,20.30
2019-05-19T09:44:31.605Z,20.50
2019-05-19T09:46:59.227Z,20.70
2019-05-19T09:49:32.779Z,20.80
2019-05-19T09:52:00.671Z,20.90
2019-05-19T09:54:28.712Z,21.00
2019-05-19T09:56:57.289Z,20.70
2019-05-19T09:59:24.941Z,20.70
2019-05-19T10:01:52.546Z,20.70
2019-05-19T10:04:20.281Z,20.70
2019-05-19T10:06:52.438Z,21.10
2019-05-19T10:10:12.558Z,21.30
2019-05-19T10:12:40.184Z,21.60
2019-05-19T10:15:09.266Z,21.70
2019-05-19T10:17:36.879Z,22.00
2019-05-19T10:20:05.749Z,22.00
2019-05-19T10:22:33.719Z,21.70
2019-05-19T10:25:20.571Z,21.60
2019-05-19T10:27:31.474Z,21.60
2019-05-19T10:30:20.863Z,21.60
2019-05-19T10:32:50.805Z,21.60
2019-05-19T10:35:18.649Z,21.60
2019-05-19T10:38:28.986Z,21.70
2019-05-19T10:40:56.651Z,21.70
2019-05-19T10:43:25.045Z,21.50
2019-05-19T10:46:44.065Z,21.50
2019-05-19T10:49:19.947Z,21.60
2019-05-19T10:52:49.594Z,21.90
2019-05-19T10:55:35.938Z,22.20
2019-05-19T10:58:37.245Z,21.90
2019-05-19T11:01:17.747Z,21.80
2019-05-19T11:04:36.357Z,21.90
2019-05-19T11:07:22.382Z,21.90
2019-05-19T11:10:38.285Z,22.00
2019-05-19T11:17:29.468Z,22.40
2019-05-19T11:20:23.074Z,22.20
2019-05-19T11:23:07.791Z,21.50
2019-05-19T11:25:34.262Z,21.60
2019-05-19T11:29:22.086Z,21.40
2019-05-19T11:31:54.750Z,21.30
2019-05-19T11:37:57.199Z,21.20
2019-05-19T11:40:24.865Z,21.60
2019-05-19T11:42:52.747Z,21.80
2019-05-19T11:45:20.516Z,22.10
2019-05-19T11:47:48.121Z,22.10
2019-05-19T11:50:17.272Z,22.10
2019-05-19T11:52:45.698Z,21.90
2019-05-19T11:55:28.622Z,22.00
2019-05-19T11:57:57.975Z,22.20
2019-05-19T12:00:26.714Z,22.20
2019-05-19T12:02:54.505Z,22.30
2019-05-19T12:05:22.655Z,22.40
2019-05-19T12:07:50.740Z,22.60
2019-05-19T12:10:18.687Z,22.70
2019-05-19T12:12:48.579Z,22.70
2019-05-19T12:15:17.000Z,22.50
2019-05-19T12:17:45.409Z,22.60
2019-05-19T12:20:16.619Z,22.60
2019-05-19T12:22:46.687Z,22.40
2019-05-19T12:25:14.705Z,22.50
2019-05-19T12:27:46.185Z,22.50
2019-05-19T12:30:18.250Z,22.20
2019-05-19T12:32:49.016Z,22.00
2019-05-19T12:35:18.460Z,21.90
2019-05-19T12:37:46.829Z,22.10
2019-05-19T12:40:22.497Z,22.20
2019-05-19T12:42:49.207Z,22.40
2019-05-19T12:45:17.552Z,22.60
2019-05-19T12:47:45.431Z,22.70
2019-05-19T12:50:13.739Z,22.70
2019-05-19T12:52:41.627Z,22.90
2019-05-19T12:55:09.627Z,22.90
2019-05-19T12:57:37.537Z,22.90
2019-05-19T13:00:05.621Z,23.00
2019-05-19T13:02:33.245Z,23.10
2019-05-19T13:05:05.579Z,22.70
2019-05-19T13:07:30.852Z,22.60
2019-05-19T13:09:58.649Z,22.80
2019-05-19T13:12:26.540Z,23.00
2019-05-19T13:14:56.960Z,23.00
2019-05-19T13:17:24.979Z,23.00
2019-05-19T13:19:52.893Z,23.00
2019-05-19T13:22:20.908Z,23.10
2019-05-19T13:24:49.233Z,23.00
2019-05-19T13:27:17.384Z,23.00
2019-05-19T13:29:45.384Z,23.00
2019-05-19T13:32:13.328Z,23.00
2019-05-19T13:34:41.112Z,22.90
2019-05-19T13:37:11.011Z,22.90
2019-05-19T13:39:39.055Z,22.90
2019-05-19T13:42:08.974Z,22.90
2019-05-19T13:44:36.758Z,22.90
2019-05-19T13:47:06.619Z,22.80
2019-05-19T13:49:34.782Z,22.90
2019-05-19T13:52:03.065Z,22.90
2019-05-19T13:54:31.060Z,22.80
2019-05-19T13:57:11.378Z,22.80
2019-05-19T13:59:33.722Z,22.70
2019-05-19T14:02:02.347Z,22.80
2019-05-19T14:04:34.997Z,22.90
2019-05-19T14:07:04.724Z,23.00
2019-05-19T14:09:33.038Z,23.00
2019-05-19T14:12:08.671Z,23.00
2019-05-19T14:14:39.136Z,23.00
2019-05-19T14:17:15.077Z,23.00
2019-05-19T14:19:49.313Z,23.10
2019-05-19T14:22:17.412Z,23.00
2019-05-19T14:24:45.823Z,23.00
2019-05-19T14:27:28.449Z,23.10
2019-05-19T14:29:44.513Z,23.10
2019-05-19T14:32:15.274Z,23.10
2019-05-19T14:34:43.939Z,22.90
2019-05-19T14:37:12.736Z,22.80
2019-05-19T14:39:40.982Z,22.80
2019-05-19T14:42:18.413Z,22.90
2019-05-19T14:44:48.766Z,22.90
2019-05-19T14:47:23.203Z,22.90
2019-05-19T14:49:53.543Z,22.90
2019-05-19T14:52:21.632Z,22.90
2019-05-19T14:54:54.293Z,23.00
2019-05-19T14:57:22.686Z,23.20
2019-05-19T14:59:51.178Z,23.30
2019-05-19T15:02:36.446Z,23.30
2019-05-19T15:05:09.996Z,23.30
2019-05-19T15:07:42.100Z,23.20
2019-05-19T15:10:14.770Z,23.00
2019-05-19T15:12:44.120Z,23.00
2019-05-19T15:15:13.302Z,22.90
2019-05-19T15:17:42.977Z,22.80
2019-05-19T15:20:15.154Z,23.00
2019-05-19T15:22:45.351Z,23.20
2019-05-19T15:25:15.635Z,23.30
2019-05-19T15:27:43.498Z,23.40
2019-05-19T15:30:13.898Z,23.30
2019-05-19T15:32:45.580Z,23.30
2019-05-19T15:35:13.513Z,23.30
2019-05-19T15:37:44.045Z,23.20
2019-05-19T15:40:12.505Z,22.90
2019-05-19T15:42:40.272Z,22.40
2019-05-19T15:45:10.310Z,21.40
2019-05-19T15:47:38.979Z,20.60
2019-05-19T15:50:07.491Z,20.00
2019-05-19T15:52:35.251Z,19.50
2019-05-19T15:55:02.897Z,19.20
2019-05-19T15:57:30.611Z,18.80
2019-05-19T15:59:58.305Z,18.90
2019-05-19T16:02:26.106Z,18.90
2019-05-19T16:04:56.431Z,18.90
2019-05-19T16:07:24.081Z,18.90
2019-05-19T16:09:52.374Z,18.90
2019-05-19T16:12:20.294Z,18.90
2019-05-19T16:14:48.045Z,18.80
2019-05-19T16:17:15.874Z,18.50
2019-05-19T16:19:43.774Z,18.20
2019-05-19T16:22:18.080Z,18.10
2019-05-19T16:24:45.807Z,17.90
2019-05-19T16:27:13.711Z,17.60
2019-05-19T16:29:41.807Z,17.30
2019-05-19T16:32:10.138Z,17.00
2019-05-19T16:34:38.019Z,16.80
2019-05-19T16:37:06.802Z,16.80
2019-05-19T16:39:38.158Z,16.70
2019-05-19T16:42:06.137Z,16.60
2019-05-19T16:44:33.944Z,16.30
2019-05-19T16:47:01.786Z,16.10
2019-05-19T16:49:29.521Z,16.00
2019-05-19T16:51:59.251Z,16.00
2019-05-19T16:54:32.281Z,16.00
2019-05-19T16:56:59.833Z,16.00
2019-05-19T16:59:27.617Z,16.20
2019-05-19T17:01:55.386Z,16.40
2019-05-19T17:04:22.993Z,16.30
2019-05-19T17:06:50.739Z,16.10
2019-05-19T17:09:18.542Z,16.10
2019-05-19T17:11:46.224Z,16.10
2019-05-19T17:14:13.802Z,16.00
2019-05-19T17:16:41.403Z,16.00
2019-05-19T17:19:09.062Z,15.90
2019-05-19T17:21:36.710Z,15.90
2019-05-19T17:24:04.303Z,15.80
2019-05-19T17:26:31.990Z,15.90
2019-05-19T17:29:00.898Z,16.00
2019-05-19T17:31:28.844Z,16.00
2019-05-19T17:33:56.571Z,16.10
2019-05-19T17:36:27.310Z,16.20
2019-05-19T17:38:53.552Z,16.40
2019-05-19T17:41:21.195Z,16.40
2019-05-19T17:43:48.837Z,16.40
2019-05-19T17:46:16.434Z,16.20
2019-05-19T17:48:46.776Z,15.90
2019-05-19T17:51:14.410Z,15.90
2019-05-19T17:53:43.881Z,16.00
2019-05-19T17:56:12.741Z,16.20
2019-05-19T17:58:40.399Z,16.30
2019-05-19T18:01:08.117Z,16.30
2019-05-19T18:03:38.094Z,16.20
2019-05-19T18:06:05.711Z,16.10
2019-05-19T18:08:33.428Z,16.10
2019-05-19T18:11:01.043Z,16.10
2019-05-19T18:13:28.729Z,16.00
2019-05-19T18:15:56.364Z,16.00
2019-05-19T18:18:24.396Z,15.80
2019-05-19T18:20:52.026Z,15.70
2019-05-19T18:23:19.683Z,15.80
2019-05-19T18:25:47.291Z,15.80
2019-05-19T18:28:14.879Z,15.70
2019-05-19T18:30:42.487Z,15.70
2019-05-19T18:33:10.136Z,15.70
2019-05-19T18:35:38.069Z,15.80
2019-05-19T18:38:05.698Z,15.90
2019-05-19T18:40:33.289Z,16.00
2019-05-19T18:43:00.958Z,15.90
2019-05-19T18:45:28.540Z,16.00
2019-05-19T18:47:56.158Z,15.90
2019-05-19T18:50:23.932Z,15.90
2019-05-19T18:52:51.657Z,16.00
2019-05-19T18:55:19.388Z,16.10
2019-05-19T18:57:47.015Z,16.10
2019-05-19T19:00:21.170Z,16.10
2019-05-19T19:02:48.785Z,16.00
2019-05-19T19:05:16.429Z,16.00
2019-05-19T19:07:50.384Z,15.90
2019-05-19T19:10:21.258Z,16.00
2019-05-19T19:12:48.933Z,16.00
2019-05-19T19:15:16.608Z,16.10
2019-05-19T19:17:44.300Z,16.10
2019-05-19T19:20:11.859Z,16.20
2019-05-19T19:22:39.495Z,16.30
2019-05-19T19:25:07.165Z,16.30
2019-05-19T19:27:34.853Z,16.40
2019-05-19T19:30:04.080Z,16.40
2019-05-19T19:32:31.863Z,16.30
2019-05-19T19:35:02.368Z,16.20
2019-05-19T19:37:30.159Z,16.10
2019-05-19T19:39:57.824Z,16.00
2019-05-19T19:42:25.818Z,16.00
2019-05-19T19:44:53.562Z,15.90
2019-05-19T19:47:21.187Z,15.90
2019-05-19T19:49:48.797Z,15.90
2019-05-19T19:52:16.431Z,15.90
2019-05-19T19:54:44.037Z,15.80
2019-05-19T19:57:11.757Z,15.50
2019-05-19T19:59:39.495Z,15.30
2019-05-19T20:02:07.091Z,15.00
2019-05-19T20:04:34.829Z,14.80
2019-05-19T20:07:02.504Z,14.60
2019-05-19T20:09:30.201Z,14.60
2019-05-19T20:11:57.805Z,14.70
2019-05-19T20:14:25.541Z,14.90
2019-05-19T20:16:53.496Z,15.00
2019-05-19T20:19:21.138Z,15.20
2019-05-19T20:21:49.656Z,15.30
2019-05-19T20:24:17.628Z,15.40
2019-05-19T20:26:45.296Z,15.50
2019-05-19T20:29:13.144Z,15.70
2019-05-19T20:31:40.815Z,15.70
2019-05-19T20:34:08.390Z,15.80
2019-05-19T20:36:36.058Z,15.70
2019-05-19T20:39:05.169Z,15.80
2019-05-19T20:41:32.804Z,15.90
2019-05-19T20:44:00.417Z,16.00
2019-05-19T20:46:28.017Z,16.10
2019-05-19T20:48:55.721Z,16.10
2019-05-19T20:51:23.389Z,16.10
2019-05-19T20:53:53.273Z,16.10
2019-05-19T20:56:20.651Z,16.00
2019-05-19T20:58:48.207Z,15.90
2019-05-19T21:01:15.811Z,15.80
2019-05-19T21:03:43.460Z,15.60
2019-05-19T21:06:11.041Z,15.50
2019-05-19T21:08:38.563Z,15.40
2019-05-19T21:11:06.179Z,15.50
2019-05-19T21:13:33.768Z,15.40
2019-05-19T21:16:01.498Z,15.40
2019-05-19T21:18:29.236Z,15.40
2019-05-19T21:20:56.933Z,15.40
2019-05-19T21:23:24.537Z,15.30
2019-05-19T21:25:52.259Z,15.40
2019-05-19T21:28:19.771Z,15.30
2019-05-19T21:30:47.388Z,15.10
2019-05-19T21:33:14.955Z,15.10
2019-05-19T21:35:42.539Z,15.10
2019-05-19T21:38:10.161Z,15.10
2019-05-19T21:40:37.858Z,15.10
2019-05-19T21:43:05.453Z,15.00
2019-05-19T21:45:33.064Z,15.10
2019-05-19T21:48:00.621Z,15.10
2019-05-19T21:50:28.241Z,15.20
2019-05-19T21:52:56.212Z,15.30
2019-05-19T21:55:23.983Z,15.30
2019-05-19T21:57:51.713Z,15.20
2019-05-19T22:00:21.664Z,15.10
2019-05-19T22:02:49.395Z,15.10
2019-05-19T22:05:17.179Z,15.20
2019-05-19T22:08:10.144Z,15.20
2019-05-19T22:10:38.134Z,15.20
2019-05-19T22:13:05.783Z,15.30
2019-05-19T22:15:33.855Z,15.40
2019-05-19T22:18:01.724Z,15.40
2019-05-19T22:20:29.450Z,15.40
2019-05-19T22:22:57.069Z,15.30
2019-05-19T22:25:24.695Z,15.30
2019-05-19T22:27:52.260Z,15.20
2019-05-19T22:30:21.611Z,15.30
2019-05-19T22:32:49.203Z,15.30
2019-05-19T22:35:16.877Z,15.20
2019-05-19T22:37:44.391Z,15.20
2019-05-19T22:40:12.079Z,15.20
2019-05-19T22:42:39.723Z,15.10
2019-05-19T22:45:07.544Z,15.10
2019-05-19T22:47:35.200Z,15.00
2019-05-19T22:50:03.264Z,14.90
2019-05-19T22:52:30.842Z,14.90
2019-05-19T22:54:58.499Z,14.80
2019-05-19T22:57:26.168Z,14.60
2019-05-19T22:59:53.801Z,14.50
2019-05-19T23:02:21.391Z,14.50
2019-05-19T23:04:48.955Z,14.40
2019-05-19T23:07:16.590Z,14.50
2019-05-19T23:09:44.107Z,14.50
2019-05-19T23:12:11.762Z,14.50
2019-05-19T23:14:39.422Z,14.60
2019-05-19T23:17:06.984Z,14.60
2019-05-19T23:19:34.581Z,14.70
2019-05-19T23:22:02.226Z,14.80
2019-05-19T23:24:29.706Z,14.80
2019-05-19T23:26:57.334Z,14.70
2019-05-19T23:29:24.905Z,14.60
2019-05-19T23:32:06.220Z,14.50
2019-05-19T23:34:21.932Z,14.50
2019-05-19T23:36:49.505Z,14.40
2019-05-19T23:39:17.066Z,14.50
2019-05-19T23:41:44.677Z,14.50
2019-05-19T23:44:12.302Z,14.50
2019-05-19T23:46:40.315Z,14.70
2019-05-19T23:49:08.260Z,14.70
2019-05-19T23:51:35.805Z,14.70
2019-05-19T23:54:03.442Z,14.70
2019-05-19T23:56:31.033Z,14.70
2019-05-19T23:58:58.722Z,14.70
